sensor_id;sensor_type;location;lat;lon;timestamp;P1;durP1;ratioP1;P2;durP2;ratioP2
22780;SDS011;11557;50.884;4.322;2023-12-14T00:00:29;53.97;;;23.35;;
22780;SDS011;11557;50.884;4.322;2023-12-14T00:02:55;53.15;;;24.05;;
22780;SDS011;11557;50.884;4.322;2023-12-14T00:05:21;55.15;;;25.38;;
22780;SDS011;11557;50.884;4.322;2023-12-14T00:07:47;58.55;;;25.95;;
22780;SDS011;11557;50.884;4.322;2023-12-14T00:10:13;50.08;;;24.27;;
22780;SDS011;11557;50.884;4.322;2023-12-14T00:12:38;48.50;;;23.23;;
22780;SDS011;11557;50.884;4.322;2023-12-14T00:15:04;52.03;;;23.92;;
22780;SDS011;11557;50.884;4.322;2023-12-14T00:17:31;50.88;;;23.77;;
22780;SDS011;11557;50.884;4.322;2023-12-14T00:19:56;52.38;;;24.15;;
22780;SDS011;11557;50.884;4.322;2023-12-14T00:22:22;47.85;;;22.65;;
22780;SDS011;11557;50.884;4.322;2023-12-14T00:24:48;49.10;;;22.65;;
22780;SDS011;11557;50.884;4.322;2023-12-14T00:27:13;50.70;;;23.25;;
22780;SDS011;11557;50.884;4.322;2023-12-14T00:29:39;49.15;;;25.15;;
22780;SDS011;11557;50.884;4.322;2023-12-14T00:32:05;49.97;;;23.63;;
22780;SDS011;11557;50.884;4.322;2023-12-14T00:34:31;54.60;;;25.05;;
22780;SDS011;11557;50.884;4.322;2023-12-14T00:36:57;55.45;;;25.33;;
22780;SDS011;11557;50.884;4.322;2023-12-14T00:39:23;54.80;;;25.80;;
22780;SDS011;11557;50.884;4.322;2023-12-14T00:41:48;57.88;;;25.42;;
22780;SDS011;11557;50.884;4.322;2023-12-14T00:44:14;54.45;;;25.75;;
22780;SDS011;11557;50.884;4.322;2023-12-14T00:46:40;55.22;;;25.65;;
22780;SDS011;11557;50.884;4.322;2023-12-14T00:49:06;58.70;;;26.52;;
22780;SDS011;11557;50.884;4.322;2023-12-14T00:51:32;52.90;;;26.17;;
22780;SDS011;11557;50.884;4.322;2023-12-14T00:53:58;66.25;;;27.17;;
22780;SDS011;11557;50.884;4.322;2023-12-14T00:56:23;56.17;;;26.52;;
22780;SDS011;11557;50.884;4.322;2023-12-14T00:58:49;63.80;;;27.23;;
22780;SDS011;11557;50.884;4.322;2023-12-14T01:01:15;63.25;;;26.80;;
22780;SDS011;11557;50.884;4.322;2023-12-14T01:03:40;62.60;;;28.02;;
22780;SDS011;11557;50.884;4.322;2023-12-14T01:06:06;62.17;;;27.60;;
22780;SDS011;11557;50.884;4.322;2023-12-14T01:08:32;62.88;;;28.13;;
22780;SDS011;11557;50.884;4.322;2023-12-14T01:10:57;65.53;;;28.85;;
22780;SDS011;11557;50.884;4.322;2023-12-14T01:13:23;60.95;;;27.88;;
22780;SDS011;11557;50.884;4.322;2023-12-14T01:15:49;66.28;;;28.52;;
22780;SDS011;11557;50.884;4.322;2023-12-14T01:18:14;74.75;;;30.10;;
22780;SDS011;11557;50.884;4.322;2023-12-14T01:20:40;70.57;;;29.90;;
22780;SDS011;11557;50.884;4.322;2023-12-14T01:23:06;70.05;;;30.42;;
22780;SDS011;11557;50.884;4.322;2023-12-14T01:25:34;67.70;;;31.08;;
22780;SDS011;11557;50.884;4.322;2023-12-14T01:28:00;74.40;;;30.55;;
22780;SDS011;11557;50.884;4.322;2023-12-14T01:30:26;69.25;;;29.48;;
22780;SDS011;11557;50.884;4.322;2023-12-14T01:32:52;70.45;;;29.27;;
22780;SDS011;11557;50.884;4.322;2023-12-14T01:35:17;68.85;;;29.52;;
22780;SDS011;11557;50.884;4.322;2023-12-14T01:37:43;69.10;;;28.73;;
22780;SDS011;11557;50.884;4.322;2023-12-14T01:40:08;75.55;;;29.52;;
22780;SDS011;11557;50.884;4.322;2023-12-14T01:42:34;68.03;;;27.05;;
22780;SDS011;11557;50.884;4.322;2023-12-14T01:45:00;63.00;;;27.40;;
22780;SDS011;11557;50.884;4.322;2023-12-14T01:47:26;66.85;;;29.23;;
22780;SDS011;11557;50.884;4.322;2023-12-14T01:49:51;58.53;;;28.20;;
22780;SDS011;11557;50.884;4.322;2023-12-14T01:52:17;68.30;;;27.73;;
22780;SDS011;11557;50.884;4.322;2023-12-14T01:54:43;64.57;;;27.17;;
22780;SDS011;11557;50.884;4.322;2023-12-14T01:57:08;60.15;;;27.23;;
22780;SDS011;11557;50.884;4.322;2023-12-14T01:59:34;61.72;;;27.23;;
22780;SDS011;11557;50.884;4.322;2023-12-14T02:02:00;60.80;;;27.58;;
22780;SDS011;11557;50.884;4.322;2023-12-14T02:04:27;66.63;;;27.75;;
22780;SDS011;11557;50.884;4.322;2023-12-14T02:06:53;65.15;;;28.55;;
22780;SDS011;11557;50.884;4.322;2023-12-14T02:09:19;63.63;;;27.90;;
22780;SDS011;11557;50.884;4.322;2023-12-14T02:11:44;64.22;;;28.15;;
22780;SDS011;11557;50.884;4.322;2023-12-14T02:14:10;63.92;;;29.92;;
22780;SDS011;11557;50.884;4.322;2023-12-14T02:16:37;69.40;;;31.20;;
22780;SDS011;11557;50.884;4.322;2023-12-14T02:19:03;69.15;;;29.98;;
22780;SDS011;11557;50.884;4.322;2023-12-14T02:21:30;64.78;;;31.67;;
22780;SDS011;11557;50.884;4.322;2023-12-14T02:23:56;71.97;;;31.70;;
22780;SDS011;11557;50.884;4.322;2023-12-14T02:26:21;68.57;;;32.58;;
22780;SDS011;11557;50.884;4.322;2023-12-14T02:28:47;69.45;;;32.65;;
22780;SDS011;11557;50.884;4.322;2023-12-14T02:31:13;68.97;;;32.85;;
22780;SDS011;11557;50.884;4.322;2023-12-14T02:33:38;77.50;;;33.22;;
22780;SDS011;11557;50.884;4.322;2023-12-14T02:36:04;70.18;;;33.25;;
22780;SDS011;11557;50.884;4.322;2023-12-14T02:38:30;71.68;;;33.83;;
22780;SDS011;11557;50.884;4.322;2023-12-14T02:40:56;73.22;;;32.22;;
22780;SDS011;11557;50.884;4.322;2023-12-14T02:43:22;78.32;;;34.03;;
22780;SDS011;11557;50.884;4.322;2023-12-14T02:45:48;70.53;;;32.20;;
22780;SDS011;11557;50.884;4.322;2023-12-14T02:48:14;70.55;;;31.45;;
22780;SDS011;11557;50.884;4.322;2023-12-14T02:50:40;62.58;;;30.98;;
22780;SDS011;11557;50.884;4.322;2023-12-14T02:53:06;68.70;;;32.47;;
22780;SDS011;11557;50.884;4.322;2023-12-14T02:55:32;72.50;;;32.20;;
22780;SDS011;11557;50.884;4.322;2023-12-14T02:57:57;64.53;;;31.63;;
22780;SDS011;11557;50.884;4.322;2023-12-14T03:00:23;64.85;;;31.15;;
22780;SDS011;11557;50.884;4.322;2023-12-14T03:02:48;68.68;;;33.05;;
22780;SDS011;11557;50.884;4.322;2023-12-14T03:05:14;63.47;;;30.40;;
22780;SDS011;11557;50.884;4.322;2023-12-14T03:07:40;66.57;;;32.17;;
22780;SDS011;11557;50.884;4.322;2023-12-14T03:10:06;61.03;;;29.38;;
22780;SDS011;11557;50.884;4.322;2023-12-14T03:12:33;63.33;;;29.27;;
22780;SDS011;11557;50.884;4.322;2023-12-14T03:14:59;59.35;;;29.77;;
22780;SDS011;11557;50.884;4.322;2023-12-14T03:17:24;56.72;;;27.45;;
22780;SDS011;11557;50.884;4.322;2023-12-14T03:19:50;49.88;;;24.98;;
22780;SDS011;11557;50.884;4.322;2023-12-14T03:22:16;48.10;;;23.20;;
22780;SDS011;11557;50.884;4.322;2023-12-14T03:24:41;46.25;;;22.95;;
22780;SDS011;11557;50.884;4.322;2023-12-14T03:27:07;40.17;;;22.30;;
22780;SDS011;11557;50.884;4.322;2023-12-14T03:29:33;38.97;;;21.30;;
22780;SDS011;11557;50.884;4.322;2023-12-14T03:31:59;43.33;;;22.08;;
22780;SDS011;11557;50.884;4.322;2023-12-14T03:34:25;38.78;;;20.20;;
22780;SDS011;11557;50.884;4.322;2023-12-14T03:36:51;37.15;;;19.17;;
22780;SDS011;11557;50.884;4.322;2023-12-14T03:39:17;37.83;;;19.50;;
22780;SDS011;11557;50.884;4.322;2023-12-14T03:41:44;35.50;;;19.85;;
22780;SDS011;11557;50.884;4.322;2023-12-14T03:44:11;36.25;;;19.88;;
22780;SDS011;11557;50.884;4.322;2023-12-14T03:46:37;39.83;;;20.10;;
22780;SDS011;11557;50.884;4.322;2023-12-14T03:49:02;35.30;;;20.15;;
22780;SDS011;11557;50.884;4.322;2023-12-14T03:51:29;40.35;;;20.90;;
22780;SDS011;11557;50.884;4.322;2023-12-14T03:53:54;38.83;;;20.73;;
22780;SDS011;11557;50.884;4.322;2023-12-14T03:56:20;39.78;;;21.30;;
22780;SDS011;11557;50.884;4.322;2023-12-14T03:58:46;36.33;;;21.13;;
22780;SDS011;11557;50.884;4.322;2023-12-14T04:01:18;35.30;;;20.45;;
22780;SDS011;11557;50.884;4.322;2023-12-14T04:03:45;33.38;;;19.92;;
22780;SDS011;11557;50.884;4.322;2023-12-14T04:06:12;35.38;;;19.85;;
22780;SDS011;11557;50.884;4.322;2023-12-14T04:08:38;33.20;;;18.70;;
22780;SDS011;11557;50.884;4.322;2023-12-14T04:11:05;33.00;;;20.52;;
22780;SDS011;11557;50.884;4.322;2023-12-14T04:13:30;32.60;;;20.17;;
22780;SDS011;11557;50.884;4.322;2023-12-14T04:15:56;31.75;;;19.30;;
22780;SDS011;11557;50.884;4.322;2023-12-14T04:18:22;32.70;;;19.67;;
22780;SDS011;11557;50.884;4.322;2023-12-14T04:20:48;31.20;;;19.45;;
22780;SDS011;11557;50.884;4.322;2023-12-14T04:23:14;31.25;;;20.10;;
22780;SDS011;11557;50.884;4.322;2023-12-14T04:25:40;28.42;;;19.85;;
22780;SDS011;11557;50.884;4.322;2023-12-14T04:28:05;31.90;;;20.15;;
22780;SDS011;11557;50.884;4.322;2023-12-14T04:30:31;32.20;;;19.52;;
22780;SDS011;11557;50.884;4.322;2023-12-14T04:32:57;31.33;;;20.55;;
22780;SDS011;11557;50.884;4.322;2023-12-14T04:35:23;29.30;;;19.98;;
22780;SDS011;11557;50.884;4.322;2023-12-14T04:37:49;30.10;;;19.60;;
22780;SDS011;11557;50.884;4.322;2023-12-14T04:40:14;31.55;;;20.42;;
22780;SDS011;11557;50.884;4.322;2023-12-14T04:42:40;31.73;;;20.48;;
22780;SDS011;11557;50.884;4.322;2023-12-14T04:45:06;31.02;;;21.30;;
22780;SDS011;11557;50.884;4.322;2023-12-14T04:47:34;32.20;;;20.95;;
22780;SDS011;11557;50.884;4.322;2023-12-14T04:50:01;29.85;;;19.95;;
22780;SDS011;11557;50.884;4.322;2023-12-14T04:52:27;29.92;;;21.17;;
22780;SDS011;11557;50.884;4.322;2023-12-14T04:54:53;31.60;;;20.08;;
22780;SDS011;11557;50.884;4.322;2023-12-14T04:57:18;29.27;;;20.00;;
22780;SDS011;11557;50.884;4.322;2023-12-14T04:59:44;31.90;;;20.30;;
22780;SDS011;11557;50.884;4.322;2023-12-14T05:02:09;30.88;;;20.02;;
22780;SDS011;11557;50.884;4.322;2023-12-14T05:04:35;31.52;;;21.13;;
22780;SDS011;11557;50.884;4.322;2023-12-14T05:07:01;28.17;;;20.05;;
22780;SDS011;11557;50.884;4.322;2023-12-14T05:09:27;28.42;;;19.85;;
22780;SDS011;11557;50.884;4.322;2023-12-14T05:11:53;30.42;;;19.58;;
22780;SDS011;11557;50.884;4.322;2023-12-14T05:14:19;29.95;;;19.85;;
22780;SDS011;11557;50.884;4.322;2023-12-14T05:16:44;25.95;;;19.33;;
22780;SDS011;11557;50.884;4.322;2023-12-14T05:19:10;32.72;;;19.20;;
22780;SDS011;11557;50.884;4.322;2023-12-14T05:21:37;26.65;;;19.15;;
22780;SDS011;11557;50.884;4.322;2023-12-14T05:24:03;31.05;;;19.35;;
22780;SDS011;11557;50.884;4.322;2023-12-14T05:26:29;26.95;;;19.30;;
22780;SDS011;11557;50.884;4.322;2023-12-14T05:28:54;27.20;;;18.88;;
22780;SDS011;11557;50.884;4.322;2023-12-14T05:31:20;27.08;;;19.25;;
22780;SDS011;11557;50.884;4.322;2023-12-14T05:33:46;27.55;;;19.50;;
22780;SDS011;11557;50.884;4.322;2023-12-14T05:36:12;29.92;;;20.52;;
22780;SDS011;11557;50.884;4.322;2023-12-14T05:38:41;27.63;;;19.92;;
22780;SDS011;11557;50.884;4.322;2023-12-14T05:41:07;29.88;;;20.77;;
22780;SDS011;11557;50.884;4.322;2023-12-14T05:43:33;30.55;;;21.27;;
22780;SDS011;11557;50.884;4.322;2023-12-14T05:45:59;32.50;;;20.50;;
22780;SDS011;11557;50.884;4.322;2023-12-14T05:48:25;28.67;;;19.70;;
22780;SDS011;11557;50.884;4.322;2023-12-14T05:50:52;26.63;;;18.83;;
22780;SDS011;11557;50.884;4.322;2023-12-14T05:53:17;28.10;;;19.08;;
22780;SDS011;11557;50.884;4.322;2023-12-14T05:55:43;26.95;;;19.25;;
22780;SDS011;11557;50.884;4.322;2023-12-14T05:58:09;28.20;;;19.45;;
22780;SDS011;11557;50.884;4.322;2023-12-14T06:00:35;27.98;;;18.98;;
22780;SDS011;11557;50.884;4.322;2023-12-14T06:03:01;27.10;;;18.20;;
22780;SDS011;11557;50.884;4.322;2023-12-14T06:05:27;27.75;;;17.98;;
22780;SDS011;11557;50.884;4.322;2023-12-14T06:07:53;27.73;;;18.08;;
22780;SDS011;11557;50.884;4.322;2023-12-14T06:10:19;22.88;;;17.17;;
22780;SDS011;11557;50.884;4.322;2023-12-14T06:12:45;28.92;;;18.92;;
22780;SDS011;11557;50.884;4.322;2023-12-14T06:15:10;27.40;;;17.77;;
22780;SDS011;11557;50.884;4.322;2023-12-14T06:17:36;27.10;;;18.05;;
22780;SDS011;11557;50.884;4.322;2023-12-14T06:20:04;25.55;;;17.65;;
22780;SDS011;11557;50.884;4.322;2023-12-14T06:22:37;25.50;;;17.38;;
22780;SDS011;11557;50.884;4.322;2023-12-14T06:25:03;26.67;;;17.30;;
22780;SDS011;11557;50.884;4.322;2023-12-14T06:27:30;27.60;;;17.75;;
22780;SDS011;11557;50.884;4.322;2023-12-14T06:29:56;27.45;;;18.67;;
22780;SDS011;11557;50.884;4.322;2023-12-14T06:32:21;30.52;;;18.73;;
22780;SDS011;11557;50.884;4.322;2023-12-14T06:34:47;28.58;;;17.92;;
22780;SDS011;11557;50.884;4.322;2023-12-14T06:37:13;29.73;;;18.20;;
22780;SDS011;11557;50.884;4.322;2023-12-14T06:39:40;29.65;;;17.75;;
22780;SDS011;11557;50.884;4.322;2023-12-14T06:42:06;30.90;;;17.23;;
22780;SDS011;11557;50.884;4.322;2023-12-14T06:44:32;25.27;;;17.38;;
22780;SDS011;11557;50.884;4.322;2023-12-14T06:46:58;27.52;;;16.98;;
22780;SDS011;11557;50.884;4.322;2023-12-14T06:49:24;29.67;;;16.92;;
22780;SDS011;11557;50.884;4.322;2023-12-14T06:51:50;27.60;;;16.23;;
22780;SDS011;11557;50.884;4.322;2023-12-14T06:54:16;22.60;;;15.70;;
22780;SDS011;11557;50.884;4.322;2023-12-14T06:56:41;23.65;;;15.90;;
22780;SDS011;11557;50.884;4.322;2023-12-14T06:59:07;23.65;;;14.98;;
22780;SDS011;11557;50.884;4.322;2023-12-14T07:01:33;23.55;;;14.73;;
22780;SDS011;11557;50.884;4.322;2023-12-14T07:03:59;22.33;;;14.18;;
22780;SDS011;11557;50.884;4.322;2023-12-14T07:06:25;23.35;;;13.60;;
22780;SDS011;11557;50.884;4.322;2023-12-14T07:08:51;26.60;;;14.10;;
22780;SDS011;11557;50.884;4.322;2023-12-14T07:11:17;22.83;;;13.77;;
22780;SDS011;11557;50.884;4.322;2023-12-14T07:13:42;20.02;;;12.88;;
22780;SDS011;11557;50.884;4.322;2023-12-14T07:16:09;22.92;;;13.60;;
22780;SDS011;11557;50.884;4.322;2023-12-14T07:18:36;22.20;;;13.13;;
22780;SDS011;11557;50.884;4.322;2023-12-14T07:21:03;20.70;;;13.35;;
22780;SDS011;11557;50.884;4.322;2023-12-14T07:23:29;24.55;;;13.20;;
22780;SDS011;11557;50.884;4.322;2023-12-14T07:25:55;20.50;;;12.43;;
22780;SDS011;11557;50.884;4.322;2023-12-14T07:28:21;18.73;;;12.95;;
22780;SDS011;11557;50.884;4.322;2023-12-14T07:30:47;21.27;;;13.52;;
22780;SDS011;11557;50.884;4.322;2023-12-14T07:33:14;21.08;;;13.65;;
22780;SDS011;11557;50.884;4.322;2023-12-14T07:35:40;20.95;;;13.27;;
22780;SDS011;11557;50.884;4.322;2023-12-14T07:38:05;20.35;;;13.93;;
22780;SDS011;11557;50.884;4.322;2023-12-14T07:40:31;22.35;;;13.98;;
22780;SDS011;11557;50.884;4.322;2023-12-14T07:42:57;26.23;;;15.23;;
22780;SDS011;11557;50.884;4.322;2023-12-14T07:45:23;22.00;;;13.73;;
22780;SDS011;11557;50.884;4.322;2023-12-14T07:47:48;23.90;;;13.15;;
22780;SDS011;11557;50.884;4.322;2023-12-14T07:50:14;26.23;;;13.85;;
22780;SDS011;11557;50.884;4.322;2023-12-14T07:52:40;19.83;;;13.30;;
22780;SDS011;11557;50.884;4.322;2023-12-14T07:55:06;19.48;;;12.13;;
22780;SDS011;11557;50.884;4.322;2023-12-14T07:57:32;22.98;;;13.35;;
22780;SDS011;11557;50.884;4.322;2023-12-14T07:59:58;23.48;;;13.45;;
22780;SDS011;11557;50.884;4.322;2023-12-14T08:02:24;20.70;;;12.68;;
22780;SDS011;11557;50.884;4.322;2023-12-14T08:04:49;22.58;;;12.55;;
22780;SDS011;11557;50.884;4.322;2023-12-14T08:07:15;16.00;;;10.98;;
22780;SDS011;11557;50.884;4.322;2023-12-14T08:09:41;16.10;;;10.55;;
22780;SDS011;11557;50.884;4.322;2023-12-14T08:12:06;20.88;;;10.82;;
22780;SDS011;11557;50.884;4.322;2023-12-14T08:14:33;14.40;;;9.82;;
22780;SDS011;11557;50.884;4.322;2023-12-14T08:17:08;16.67;;;9.98;;
22780;SDS011;11557;50.884;4.322;2023-12-14T08:19:35;15.43;;;9.70;;
22780;SDS011;11557;50.884;4.322;2023-12-14T08:22:01;13.68;;;9.57;;
22780;SDS011;11557;50.884;4.322;2023-12-14T08:24:27;24.55;;;10.43;;
22780;SDS011;11557;50.884;4.322;2023-12-14T08:26:56;21.05;;;10.48;;
22780;SDS011;11557;50.884;4.322;2023-12-14T08:29:21;14.73;;;9.90;;
22780;SDS011;11557;50.884;4.322;2023-12-14T08:31:47;17.08;;;9.00;;
22780;SDS011;11557;50.884;4.322;2023-12-14T08:34:13;14.18;;;8.77;;
22780;SDS011;11557;50.884;4.322;2023-12-14T08:36:39;11.60;;;8.93;;
22780;SDS011;11557;50.884;4.322;2023-12-14T08:39:05;21.33;;;10.23;;
22780;SDS011;11557;50.884;4.322;2023-12-14T08:41:31;15.88;;;10.13;;
22780;SDS011;11557;50.884;4.322;2023-12-14T08:43:57;17.58;;;10.40;;
22780;SDS011;11557;50.884;4.322;2023-12-14T08:46:23;19.10;;;10.00;;
22780;SDS011;11557;50.884;4.322;2023-12-14T08:48:48;19.35;;;10.43;;
22780;SDS011;11557;50.884;4.322;2023-12-14T08:51:14;17.63;;;10.82;;
22780;SDS011;11557;50.884;4.322;2023-12-14T08:53:40;20.13;;;11.00;;
22780;SDS011;11557;50.884;4.322;2023-12-14T08:56:06;15.75;;;9.48;;
22780;SDS011;11557;50.884;4.322;2023-12-14T08:58:33;17.10;;;10.40;;
22780;SDS011;11557;50.884;4.322;2023-12-14T09:00:58;16.38;;;9.88;;
22780;SDS011;11557;50.884;4.322;2023-12-14T09:03:24;15.32;;;9.80;;
22780;SDS011;11557;50.884;4.322;2023-12-14T09:05:51;19.83;;;11.13;;
22780;SDS011;11557;50.884;4.322;2023-12-14T09:08:17;14.85;;;9.55;;
22780;SDS011;11557;50.884;4.322;2023-12-14T09:10:43;17.20;;;10.18;;
22780;SDS011;11557;50.884;4.322;2023-12-14T09:13:11;15.55;;;9.75;;
22780;SDS011;11557;50.884;4.322;2023-12-14T09:15:37;20.42;;;9.27;;
22780;SDS011;11557;50.884;4.322;2023-12-14T09:18:03;20.52;;;10.32;;
22780;SDS011;11557;50.884;4.322;2023-12-14T09:20:28;11.48;;;8.55;;
22780;SDS011;11557;50.884;4.322;2023-12-14T09:22:54;18.63;;;8.73;;
22780;SDS011;11557;50.884;4.322;2023-12-14T09:25:20;14.00;;;8.82;;
22780;SDS011;11557;50.884;4.322;2023-12-14T09:27:46;18.48;;;8.50;;
22780;SDS011;11557;50.884;4.322;2023-12-14T09:30:12;13.52;;;7.85;;
22780;SDS011;11557;50.884;4.322;2023-12-14T09:32:38;11.50;;;7.82;;
22780;SDS011;11557;50.884;4.322;2023-12-14T09:35:05;14.00;;;7.75;;
22780;SDS011;11557;50.884;4.322;2023-12-14T09:37:31;12.25;;;7.82;;
22780;SDS011;11557;50.884;4.322;2023-12-14T09:39:57;11.57;;;7.13;;
22780;SDS011;11557;50.884;4.322;2023-12-14T09:42:23;14.10;;;7.38;;
22780;SDS011;11557;50.884;4.322;2023-12-14T09:44:49;13.95;;;7.53;;
22780;SDS011;11557;50.884;4.322;2023-12-14T09:47:17;15.10;;;7.82;;
22780;SDS011;11557;50.884;4.322;2023-12-14T09:49:43;13.27;;;7.47;;
22780;SDS011;11557;50.884;4.322;2023-12-14T09:52:10;13.82;;;7.15;;
22780;SDS011;11557;50.884;4.322;2023-12-14T09:54:36;15.10;;;8.07;;
22780;SDS011;11557;50.884;4.322;2023-12-14T09:57:02;12.88;;;6.82;;
22780;SDS011;11557;50.884;4.322;2023-12-14T09:59:28;11.63;;;7.28;;
22780;SDS011;11557;50.884;4.322;2023-12-14T10:01:59;11.05;;;6.93;;
22780;SDS011;11557;50.884;4.322;2023-12-14T10:04:37;15.75;;;7.22;;
22780;SDS011;11557;50.884;4.322;2023-12-14T10:07:03;15.05;;;6.93;;
22780;SDS011;11557;50.884;4.322;2023-12-14T10:09:32;13.23;;;7.18;;
22780;SDS011;11557;50.884;4.322;2023-12-14T10:12:02;9.43;;;7.07;;
22780;SDS011;11557;50.884;4.322;2023-12-14T10:14:30;12.70;;;7.28;;
22780;SDS011;11557;50.884;4.322;2023-12-14T10:16:56;15.85;;;7.47;;
22780;SDS011;11557;50.884;4.322;2023-12-14T10:19:22;13.45;;;7.15;;
22780;SDS011;11557;50.884;4.322;2023-12-14T10:21:48;13.20;;;6.38;;
22780;SDS011;11557;50.884;4.322;2023-12-14T10:24:15;17.35;;;6.88;;
22780;SDS011;11557;50.884;4.322;2023-12-14T10:26:41;13.98;;;7.57;;
22780;SDS011;11557;50.884;4.322;2023-12-14T10:29:10;12.38;;;6.28;;
22780;SDS011;11557;50.884;4.322;2023-12-14T10:31:36;12.63;;;5.65;;
22780;SDS011;11557;50.884;4.322;2023-12-14T10:34:05;11.20;;;6.13;;
22780;SDS011;11557;50.884;4.322;2023-12-14T10:36:32;16.27;;;5.88;;
22780;SDS011;11557;50.884;4.322;2023-12-14T10:38:58;11.00;;;5.82;;
22780;SDS011;11557;50.884;4.322;2023-12-14T10:41:25;11.55;;;5.85;;
22780;SDS011;11557;50.884;4.322;2023-12-14T10:43:53;10.63;;;6.32;;
22780;SDS011;11557;50.884;4.322;2023-12-14T10:46:20;15.10;;;6.05;;
22780;SDS011;11557;50.884;4.322;2023-12-14T10:48:51;12.70;;;6.50;;
22780;SDS011;11557;50.884;4.322;2023-12-14T10:51:18;13.90;;;6.40;;
22780;SDS011;11557;50.884;4.322;2023-12-14T10:53:47;13.45;;;6.18;;
22780;SDS011;11557;50.884;4.322;2023-12-14T10:56:14;16.48;;;6.22;;
22780;SDS011;11557;50.884;4.322;2023-12-14T10:58:45;14.82;;;6.07;;
22780;SDS011;11557;50.884;4.322;2023-12-14T11:01:16;8.90;;;5.40;;
22780;SDS011;11557;50.884;4.322;2023-12-14T11:03:43;11.93;;;6.20;;
22780;SDS011;11557;50.884;4.322;2023-12-14T11:06:42;11.18;;;5.57;;
22780;SDS011;11557;50.884;4.322;2023-12-14T11:09:06;14.18;;;5.30;;
22780;SDS011;11557;50.884;4.322;2023-12-14T11:11:43;10.80;;;5.60;;
22780;SDS011;11557;50.884;4.322;2023-12-14T11:14:18;13.60;;;5.15;;
22780;SDS011;11557;50.884;4.322;2023-12-14T11:16:44;10.70;;;5.57;;
22780;SDS011;11557;50.884;4.322;2023-12-14T11:21:48;12.07;;;5.30;;
22780;SDS011;11557;50.884;4.322;2023-12-14T11:24:14;12.45;;;5.78;;
22780;SDS011;11557;50.884;4.322;2023-12-14T11:26:40;9.77;;;5.20;;
22780;SDS011;11557;50.884;4.322;2023-12-14T11:29:06;13.07;;;6.40;;
22780;SDS011;11557;50.884;4.322;2023-12-14T11:31:32;13.35;;;6.05;;
22780;SDS011;11557;50.884;4.322;2023-12-14T11:33:58;15.38;;;7.05;;
22780;SDS011;11557;50.884;4.322;2023-12-14T11:36:26;13.43;;;6.13;;
22780;SDS011;11557;50.884;4.322;2023-12-14T11:38:51;13.80;;;6.28;;
22780;SDS011;11557;50.884;4.322;2023-12-14T11:41:20;15.68;;;7.47;;
22780;SDS011;11557;50.884;4.322;2023-12-14T11:43:46;12.10;;;7.75;;
22780;SDS011;11557;50.884;4.322;2023-12-14T11:46:13;18.67;;;8.80;;
22780;SDS011;11557;50.884;4.322;2023-12-14T11:48:40;14.85;;;7.65;;
22780;SDS011;11557;50.884;4.322;2023-12-14T11:51:09;17.05;;;7.80;;
22780;SDS011;11557;50.884;4.322;2023-12-14T11:53:35;20.48;;;7.95;;
22780;SDS011;11557;50.884;4.322;2023-12-14T11:56:05;18.95;;;8.80;;
22780;SDS011;11557;50.884;4.322;2023-12-14T11:58:31;16.67;;;8.85;;
22780;SDS011;11557;50.884;4.322;2023-12-14T12:01:12;16.25;;;9.10;;
22780;SDS011;11557;50.884;4.322;2023-12-14T12:03:39;25.77;;;8.80;;
22780;SDS011;11557;50.884;4.322;2023-12-14T12:06:05;22.80;;;9.65;;
22780;SDS011;11557;50.884;4.322;2023-12-14T12:08:31;22.65;;;13.00;;
22780;SDS011;11557;50.884;4.322;2023-12-14T12:11:07;15.20;;;9.43;;
22780;SDS011;11557;50.884;4.322;2023-12-14T12:13:34;16.13;;;8.80;;
22780;SDS011;11557;50.884;4.322;2023-12-14T12:16:00;14.23;;;8.48;;
22780;SDS011;11557;50.884;4.322;2023-12-14T12:18:25;19.67;;;9.05;;
22780;SDS011;11557;50.884;4.322;2023-12-14T12:20:52;13.68;;;7.78;;
22780;SDS011;11557;50.884;4.322;2023-12-14T12:23:18;18.10;;;7.40;;
22780;SDS011;11557;50.884;4.322;2023-12-14T12:25:44;17.85;;;7.95;;
22780;SDS011;11557;50.884;4.322;2023-12-14T12:28:10;11.60;;;6.22;;
22780;SDS011;11557;50.884;4.322;2023-12-14T12:30:36;18.75;;;7.00;;
22780;SDS011;11557;50.884;4.322;2023-12-14T12:33:01;15.43;;;7.57;;
22780;SDS011;11557;50.884;4.322;2023-12-14T12:35:27;12.15;;;6.72;;
22780;SDS011;11557;50.884;4.322;2023-12-14T12:37:55;15.38;;;7.18;;
22780;SDS011;11557;50.884;4.322;2023-12-14T12:40:21;10.02;;;5.93;;
22780;SDS011;11557;50.884;4.322;2023-12-14T12:42:50;10.35;;;5.32;;
22780;SDS011;11557;50.884;4.322;2023-12-14T12:45:16;14.90;;;5.07;;
22780;SDS011;11557;50.884;4.322;2023-12-14T12:50:16;13.77;;;5.32;;
22780;SDS011;11557;50.884;4.322;2023-12-14T12:52:42;11.23;;;5.90;;
22780;SDS011;11557;50.884;4.322;2023-12-14T12:55:08;10.98;;;4.85;;
22780;SDS011;11557;50.884;4.322;2023-12-14T12:57:35;12.30;;;5.80;;
22780;SDS011;11557;50.884;4.322;2023-12-14T13:00:02;10.93;;;5.68;;
22780;SDS011;11557;50.884;4.322;2023-12-14T13:02:36;13.88;;;6.10;;
22780;SDS011;11557;50.884;4.322;2023-12-14T13:05:02;11.48;;;6.05;;
22780;SDS011;11557;50.884;4.322;2023-12-14T13:07:29;14.07;;;6.60;;
22780;SDS011;11557;50.884;4.322;2023-12-14T13:09:55;16.90;;;6.07;;
22780;SDS011;11557;50.884;4.322;2023-12-14T13:12:21;14.38;;;6.57;;
22780;SDS011;11557;50.884;4.322;2023-12-14T13:14:46;14.85;;;6.95;;
22780;SDS011;11557;50.884;4.322;2023-12-14T13:17:12;14.93;;;6.68;;
22780;SDS011;11557;50.884;4.322;2023-12-14T13:19:38;16.23;;;7.30;;
22780;SDS011;11557;50.884;4.322;2023-12-14T13:22:04;13.18;;;6.63;;
22780;SDS011;11557;50.884;4.322;2023-12-14T13:24:29;13.05;;;6.55;;
22780;SDS011;11557;50.884;4.322;2023-12-14T13:26:55;12.18;;;6.63;;
22780;SDS011;11557;50.884;4.322;2023-12-14T13:29:21;14.73;;;6.82;;
22780;SDS011;11557;50.884;4.322;2023-12-14T13:31:47;12.82;;;6.65;;
22780;SDS011;11557;50.884;4.322;2023-12-14T13:34:13;16.38;;;6.82;;
22780;SDS011;11557;50.884;4.322;2023-12-14T13:36:39;13.02;;;6.90;;
22780;SDS011;11557;50.884;4.322;2023-12-14T13:39:05;16.67;;;7.15;;
22780;SDS011;11557;50.884;4.322;2023-12-14T13:41:31;14.30;;;6.80;;
22780;SDS011;11557;50.884;4.322;2023-12-14T13:43:59;14.00;;;7.05;;
22780;SDS011;11557;50.884;4.322;2023-12-14T13:46:25;11.05;;;6.65;;
22780;SDS011;11557;50.884;4.322;2023-12-14T13:48:51;17.45;;;6.82;;
22780;SDS011;11557;50.884;4.322;2023-12-14T13:51:18;10.23;;;6.72;;
22780;SDS011;11557;50.884;4.322;2023-12-14T13:53:44;12.60;;;6.88;;
22780;SDS011;11557;50.884;4.322;2023-12-14T13:56:10;14.05;;;6.88;;
22780;SDS011;11557;50.884;4.322;2023-12-14T13:58:35;16.85;;;7.38;;
22780;SDS011;11557;50.884;4.322;2023-12-14T14:01:03;14.18;;;6.60;;
22780;SDS011;11557;50.884;4.322;2023-12-14T14:03:35;14.77;;;7.30;;
22780;SDS011;11557;50.884;4.322;2023-12-14T14:06:03;12.07;;;6.82;;
22780;SDS011;11557;50.884;4.322;2023-12-14T14:08:29;12.10;;;6.75;;
22780;SDS011;11557;50.884;4.322;2023-12-14T14:10:57;15.65;;;6.13;;
22780;SDS011;11557;50.884;4.322;2023-12-14T14:13:23;11.25;;;7.20;;
22780;SDS011;11557;50.884;4.322;2023-12-14T14:15:49;12.45;;;6.70;;
22780;SDS011;11557;50.884;4.322;2023-12-14T14:18:15;16.55;;;7.13;;
22780;SDS011;11557;50.884;4.322;2023-12-14T14:20:41;12.88;;;6.38;;
22780;SDS011;11557;50.884;4.322;2023-12-14T14:23:07;13.65;;;5.38;;
22780;SDS011;11557;50.884;4.322;2023-12-14T14:25:32;12.38;;;5.72;;